Time;durP1;ratioP1;P1;durP2;ratioP2;P2;SDS_P1;SDS_P2;PMS_P1;PMS_P2;Temp;Humidity;BMP_temperature;BMP_pressure;BME280_temperature;BME280_humidity;BME280_pressure;Samples;Min_cycle;Max_cycle;Signal;HPM_P1;HPM_P2
2021/03/04 00:54:58;;;;;;;26.60;16.55;;;;;;;;;;6165217;23;20524;-96
2021/03/04 00:57:24;;;;;;;25.10;14.90;;;;;;;;;;6175035;23;20161;-96
2021/03/04 00:59:52;;;;;;;23.67;15.05;;;;;;;;;;6179777;23;20177;-96
2021/03/04 01:02:19;;;;;;;25.65;16.55;;;;;;;;;;6179608;23;20175;-96
2021/03/04 01:04:46;;;;;;;21.58;13.00;;;;;;;;;;6175428;23;20192;-96
2021/03/04 01:07:13;;;;;;;17.00;11.05;;;;;;;;;;6174742;23;20212;-96
2021/03/04 01:09:39;;;;;;;18.15;12.32;;;;;;;;;;6174520;23;20200;-96
2021/03/04 01:12:08;;;;;;;24.83;14.80;;;;;;;;;;6174887;23;20185;-96
2021/03/04 01:14:34;;;;;;;20.65;12.75;;;;;;;;;;6173091;23;20197;-96
2021/03/04 01:17:01;;;;;;;22.55;12.60;;;;;;;;;;6170498;23;20212;-96
2021/03/04 01:19:27;;;;;;;21.75;13.50;;;;;;;;;;6170148;23;20224;-96
2021/03/04 01:21:53;;;;;;;20.27;13.27;;;;;;;;;;6168875;23;20236;-96
2021/03/04 01:24:20;;;;;;;22.98;13.90;;;;;;;;;;6168953;23;20181;-96
2021/03/04 01:26:47;;;;;;;24.83;13.60;;;;;;;;;;6166883;23;20236;-96
2021/03/04 01:29:14;;;;;;;20.77;14.10;;;;;;;;;;6167944;23;20261;-96
2021/03/04 01:31:40;;;;;;;21.63;13.50;;;;;;;;;;6168235;23;20253;-96
2021/03/04 01:34:06;;;;;;;24.80;14.75;;;;;;;;;;6170482;23;20177;-96
2021/03/04 01:36:32;;;;;;;23.23;14.43;;;;;;;;;;6168025;23;20228;-96
2021/03/04 01:38:59;;;;;;;20.38;12.20;;;;;;;;;;6167882;23;20241;-96
2021/03/04 01:41:25;;;;;;;24.63;14.60;;;;;;;;;;6168975;23;20260;-96
2021/03/04 01:43:51;;;;;;;21.52;13.70;;;;;;;;;;6167509;23;20186;-96
2021/03/04 01:46:18;;;;;;;18.83;12.85;;;;;;;;;;6164942;23;20200;-96
2021/03/04 01:48:44;;;;;;;22.77;14.48;;;;;;;;;;6169262;23;20558;-96
2021/03/04 01:51:10;;;;;;;23.13;14.32;;;;;;;;;;6166575;23;20237;-96
2021/03/04 01:53:37;;;;;;;28.88;14.43;;;;;;;;;;6169023;23;20201;-96
2021/03/04 01:56:03;;;;;;;23.13;14.02;;;;;;;;;;6167135;23;20191;-96
2021/03/04 01:58:29;;;;;;;22.00;14.65;;;;;;;;;;6165607;23;20819;-96
2021/03/04 02:00:56;;;;;;;23.17;13.38;;;;;;;;;;6166057;23;20256;-96
2021/03/04 02:03:24;;;;;;;24.20;15.13;;;;;;;;;;6164772;23;20180;-96
2021/03/04 02:05:50;;;;;;;26.45;15.45;;;;;;;;;;6164705;23;20205;-96
2021/03/04 02:08:20;;;;;;;28.27;16.73;;;;;;;;;;6166286;23;20191;-96
2021/03/04 02:10:48;;;;;;;24.45;15.32;;;;;;;;;;6167352;23;20705;-96
2021/03/04 02:13:19;;;;;;;25.00;15.30;;;;;;;;;;6167013;23;20177;-96
2021/03/04 02:15:47;;;;;;;26.63;15.98;;;;;;;;;;6167578;23;20185;-96
2021/03/04 02:18:15;;;;;;;24.85;15.20;;;;;;;;;;6165886;23;20176;-96
2021/03/04 02:20:53;;;;;;;25.38;15.32;;;;;;;;;;6166760;23;20181;-96
2021/03/04 02:23:33;;;;;;;23.33;13.98;;;;;;;;;;6163842;23;20253;-96
2021/03/04 02:26:05;;;;;;;21.05;13.90;;;;;;;;;;6165237;23;20606;-96
2021/03/04 02:28:33;;;;;;;24.85;15.70;;;;;;;;;;6166402;23;20177;-96
2021/03/04 02:31:01;;;;;;;24.48;15.40;;;;;;;;;;6165951;23;20181;-96
2021/03/04 02:33:28;;;;;;;27.30;17.58;;;;;;;;;;6163640;23;20188;-96
2021/03/04 02:35:55;;;;;;;28.70;18.05;;;;;;;;;;6165456;23;20177;-96
2021/03/04 02:38:22;;;;;;;26.08;16.52;;;;;;;;;;6166530;23;20181;-96
2021/03/04 02:40:50;;;;;;;29.52;18.55;;;;;;;;;;6167862;23;20635;-95
2021/03/04 02:43:17;;;;;;;26.00;16.83;;;;;;;;;;6165541;23;20655;-96
2021/03/04 02:45:44;;;;;;;25.15;15.52;;;;;;;;;;6166197;23;20180;-96
2021/03/04 02:48:11;;;;;;;29.15;19.05;;;;;;;;;;6167576;23;20251;-96
2021/03/04 02:50:38;;;;;;;27.52;17.45;;;;;;;;;;6166575;23;20236;-96
2021/03/04 02:53:04;;;;;;;29.42;17.35;;;;;;;;;;6167758;23;20181;-96
2021/03/04 02:55:30;;;;;;;31.50;19.30;;;;;;;;;;6164564;23;20765;-96
2021/03/04 02:57:57;;;;;;;30.40;18.98;;;;;;;;;;6166780;23;20208;-96
2021/03/04 03:00:25;;;;;;;29.08;16.67;;;;;;;;;;6164948;23;20256;-96
2021/03/04 03:02:54;;;;;;;28.65;17.27;;;;;;;;;;6166516;23;20173;-95
2021/03/04 03:05:21;;;;;;;29.30;17.35;;;;;;;;;;6165733;23;20183;-96
2021/03/04 03:07:48;;;;;;;24.08;14.95;;;;;;;;;;6165592;23;20422;-96
2021/03/04 03:10:16;;;;;;;28.17;16.73;;;;;;;;;;6163249;23;20177;-96
2021/03/04 03:12:43;;;;;;;28.45;16.33;;;;;;;;;;6165059;23;20211;-96
2021/03/04 03:15:10;;;;;;;23.48;15.45;;;;;;;;;;6165275;23;20173;-96
2021/03/04 03:17:36;;;;;;;21.35;13.95;;;;;;;;;;6166363;23;20176;-96
2021/03/04 03:20:04;;;;;;;22.15;13.25;;;;;;;;;;6164498;23;20188;-96
2021/03/04 03:22:30;;;;;;;24.17;15.07;;;;;;;;;;6165267;23;20199;-96
2021/03/04 03:24:56;;;;;;;23.45;14.93;;;;;;;;;;6163203;23;20181;-95
2021/03/04 03:27:22;;;;;;;26.80;16.00;;;;;;;;;;6165955;23;20205;-96
2021/03/04 03:29:48;;;;;;;24.50;15.43;;;;;;;;;;6166863;23;20189;-96
2021/03/04 03:32:15;;;;;;;25.88;15.10;;;;;;;;;;6165189;23;20184;-96
2021/03/04 03:34:41;;;;;;;22.98;15.07;;;;;;;;;;6165496;23;20184;-96
2021/03/04 03:37:09;;;;;;;25.75;15.63;;;;;;;;;;6163803;23;20195;-96
2021/03/04 03:39:35;;;;;;;26.33;16.13;;;;;;;;;;6164474;23;20177;-96
2021/03/04 03:42:02;;;;;;;24.92;16.25;;;;;;;;;;6164429;23;20187;-96
2021/03/04 03:44:29;;;;;;;28.75;16.58;;;;;;;;;;6166698;23;20185;-96
2021/03/04 03:46:55;;;;;;;25.67;15.45;;;;;;;;;;6164001;23;20211;-95
2021/03/04 03:49:21;;;;;;;25.40;15.55;;;;;;;;;;6166519;23;20181;-95
2021/03/04 03:51:47;;;;;;;27.35;16.10;;;;;;;;;;6164681;23;20188;-95
2021/03/04 03:54:14;;;;;;;29.02;18.33;;;;;;;;;;6165778;23;20208;-95
2021/03/04 03:56:40;;;;;;;32.00;16.70;;;;;;;;;;6163576;23;20195;-95
2021/03/04 03:59:07;;;;;;;25.80;17.38;;;;;;;;;;6165228;23;20209;-94
2021/03/04 04:01:33;;;;;;;24.92;15.27;;;;;;;;;;6163390;23;20192;-95
2021/03/04 04:04:00;;;;;;;23.23;15.60;;;;;;;;;;6164882;23;20184;-95
2021/03/04 04:06:27;;;;;;;23.63;16.20;;;;;;;;;;6163540;23;20193;-95
2021/03/04 04:08:54;;;;;;;26.55;18.25;;;;;;;;;;6166077;23;20246;-95
2021/03/04 04:11:21;;;;;;;29.17;16.42;;;;;;;;;;6165996;23;20181;-96
2021/03/04 04:13:47;;;;;;;29.77;18.17;;;;;;;;;;6165196;23;20319;-95
2021/03/04 04:16:14;;;;;;;32.50;19.38;;;;;;;;;;6165831;23;20657;-95
2021/03/04 04:18:40;;;;;;;38.85;20.23;;;;;;;;;;6164624;23;20199;-95
2021/03/04 04:21:06;;;;;;;41.15;22.95;;;;;;;;;;6165042;23;20208;-96
2021/03/04 04:23:32;;;;;;;44.95;22.42;;;;;;;;;;6162999;23;20181;-95
2021/03/04 04:25:59;;;;;;;37.30;22.40;;;;;;;;;;6163437;23;20197;-96
2021/03/04 04:28:26;;;;;;;37.35;21.00;;;;;;;;;;6163530;23;20227;-96
2021/03/04 04:30:52;;;;;;;27.88;16.75;;;;;;;;;;6166906;23;20177;-95
2021/03/04 04:33:18;;;;;;;27.40;16.40;;;;;;;;;;6163727;23;20188;-95
2021/03/04 04:35:44;;;;;;;26.50;15.70;;;;;;;;;;6164734;23;20177;-96
2021/03/04 04:38:11;;;;;;;28.60;16.95;;;;;;;;;;6163801;23;20513;-95
2021/03/04 04:40:37;;;;;;;32.50;16.90;;;;;;;;;;6164612;23;20181;-95
2021/03/04 04:43:03;;;;;;;29.40;16.77;;;;;;;;;;6163371;23;20188;-95
2021/03/04 04:45:30;;;;;;;26.08;16.52;;;;;;;;;;6163143;23;20181;-95
2021/03/04 04:47:56;;;;;;;32.35;18.50;;;;;;;;;;6163303;23;20197;-96
2021/03/04 04:50:22;;;;;;;33.63;18.20;;;;;;;;;;6164382;23;20177;-95
2021/03/04 04:52:48;;;;;;;31.92;19.17;;;;;;;;;;6167933;23;20177;-96
2021/03/04 04:55:14;;;;;;;31.88;19.35;;;;;;;;;;6168864;23;20231;-96
2021/03/04 04:57:40;;;;;;;28.63;17.50;;;;;;;;;;6170042;23;20185;-96
2021/03/04 05:00:08;;;;;;;22.10;15.13;;;;;;;;;;6167673;23;20181;-96
2021/03/04 05:02:35;;;;;;;27.17;15.45;;;;;;;;;;6167594;23;20212;-96
2021/03/04 05:05:01;;;;;;;24.55;13.88;;;;;;;;;;6164401;23;20184;-96
2021/03/04 05:07:27;;;;;;;20.83;12.43;;;;;;;;;;6166219;23;20232;-96
2021/03/04 05:09:53;;;;;;;20.77;12.10;;;;;;;;;;6164863;23;20181;-96
2021/03/04 05:12:20;;;;;;;28.48;14.95;;;;;;;;;;6166820;23;20180;-96
2021/03/04 05:14:46;;;;;;;26.58;14.95;;;;;;;;;;6169699;23;20188;-96
2021/03/04 05:17:12;;;;;;;25.98;14.98;;;;;;;;;;6169873;23;20181;-96
2021/03/04 05:19:40;;;;;;;25.73;15.90;;;;;;;;;;6169872;23;20203;-96
2021/03/04 05:22:07;;;;;;;27.85;17.35;;;;;;;;;;6173664;23;20181;-96
2021/03/04 05:24:33;;;;;;;29.90;18.80;;;;;;;;;;6170774;23;20208;-96
2021/03/04 05:26:59;;;;;;;30.73;18.27;;;;;;;;;;6165737;23;20201;-96
2021/03/04 05:29:25;;;;;;;28.85;15.60;;;;;;;;;;6170908;23;20176;-96
2021/03/04 05:31:51;;;;;;;27.73;16.27;;;;;;;;;;6172029;23;20228;-96
2021/03/04 05:34:18;;;;;;;30.83;18.65;;;;;;;;;;6174226;23;20265;-96
2021/03/04 05:36:47;;;;;;;35.95;17.00;;;;;;;;;;6169415;23;20192;-96
2021/03/04 05:39:13;;;;;;;28.92;17.10;;;;;;;;;;6171286;23;20181;-96
2021/03/04 05:41:39;;;;;;;32.70;17.83;;;;;;;;;;6170088;23;20184;-96
2021/03/04 05:44:06;;;;;;;28.30;16.80;;;;;;;;;;6174372;23;20161;-96
2021/03/04 05:46:37;;;;;;;26.02;16.02;;;;;;;;;;6146786;23;20257;-96
2021/03/04 05:49:03;;;;;;;27.45;16.02;;;;;;;;;;6174384;23;20180;-96
2021/03/04 05:51:54;;;;;;;35.42;20.85;;;;;;;;;;6172061;23;20192;-96
2021/03/04 05:54:28;;;;;;;34.70;23.05;;;;;;;;;;6176535;23;20201;-96
2021/03/04 05:57:00;;;;;;;37.55;24.95;;;;;;;;;;6180423;23;20216;-96
2021/03/04 05:59:36;;;;;;;38.78;23.38;;;;;;;;;;6182308;23;20164;-97
2021/03/04 06:02:06;;;;;;;36.78;23.70;;;;;;;;;;6134402;23;20176;-96
2021/03/04 06:04:34;;;;;;;37.45;22.65;;;;;;;;;;6179016;23;20172;-96
2021/03/04 06:07:02;;;;;;;44.17;24.45;;;;;;;;;;6163361;23;20204;-95
2021/03/04 06:09:28;;;;;;;42.10;23.40;;;;;;;;;;6165856;23;20181;-96
2021/03/04 06:12:00;;;;;;;41.20;24.23;;;;;;;;;;6175939;23;20200;-96
2021/03/04 06:14:27;;;;;;;38.20;23.50;;;;;;;;;;6173108;23;20197;-96
2021/03/04 06:16:53;;;;;;;48.67;26.08;;;;;;;;;;6174530;23;20184;-96
2021/03/04 06:19:21;;;;;;;41.55;24.05;;;;;;;;;;6177996;23;20185;-96
2021/03/04 06:22:02;;;;;;;41.03;23.83;;;;;;;;;;6151434;23;20228;-96
2021/03/04 06:24:51;;;;;;;40.28;24.05;;;;;;;;;;6149675;23;20179;-96
2021/03/04 06:27:24;;;;;;;39.22;23.20;;;;;;;;;;6177845;23;20215;-96
2021/03/04 06:29:52;;;;;;;43.33;23.70;;;;;;;;;;6177872;23;20192;-96
2021/03/04 07:14:54;;;;;;;32.85;21.20;;;;;;;;;;6166629;23;20272;-96
2021/03/04 07:17:26;;;;;;;34.92;22.23;;;;;;;;;;6175730;23;20201;-96
2021/03/04 07:19:56;;;;;;;33.05;21.02;;;;;;;;;;6180496;23;20168;-96
2021/03/04 07:22:24;;;;;;;35.17;20.40;;;;;;;;;;6179446;23;20193;-96
2021/03/04 07:30:38;;;;;;;28.25;19.02;;;;;;;;;;6184261;22;20231;-96
2021/03/04 07:33:07;;;;;;;29.23;19.02;;;;;;;;;;6235634;23;20200;-96
2021/03/04 09:08:32;;;;;;;20.80;18.60;;;;;;;;;;6388846;22;20273;-93
2021/03/04 09:10:58;;;;;;;21.53;12.90;;;;;;;;;;6357650;22;20410;-94
2021/03/04 09:13:25;;;;;;;13.93;11.07;;;;;;;;;;6356233;22;20403;-95
2021/03/04 09:15:52;;;;;;;19.47;13.30;;;;;;;;;;6357317;22;20447;-93
2021/03/04 09:18:20;;;;;;;17.53;11.80;;;;;;;;;;6358019;22;20465;-94
2021/03/04 09:20:46;;;;;;;20.37;13.47;;;;;;;;;;6355697;22;20422;-94
2021/03/04 09:23:12;;;;;;;17.77;13.87;;;;;;;;;;6356823;22;20404;-93
2021/03/04 09:25:39;;;;;;;23.57;14.87;;;;;;;;;;6356164;22;20408;-93
2021/03/04 09:28:07;;;;;;;21.60;15.00;;;;;;;;;;6357933;22;20410;-93
2021/03/04 09:30:33;;;;;;;21.67;14.80;;;;;;;;;;6357066;22;20410;-91
2021/03/04 09:32:59;;;;;;;19.70;14.83;;;;;;;;;;6357194;22;20410;-92
2021/03/04 09:35:25;;;;;;;19.77;15.00;;;;;;;;;;6356002;22;20460;-92
2021/03/04 09:37:52;;;;;;;20.23;15.47;;;;;;;;;;6358108;22;20421;-94
2021/03/04 09:40:25;;;;;;;20.70;15.40;;;;;;;;;;6356341;22;20414;-93
2021/03/04 09:42:52;;;;;;;23.60;15.47;;;;;;;;;;6355063;22;20414;-93
2021/03/04 09:45:18;;;;;;;17.97;13.97;;;;;;;;;;6353786;22;20415;-92
2021/03/04 09:47:45;;;;;;;21.80;14.83;;;;;;;;;;6356524;22;20840;-92
2021/03/04 09:50:19;;;;;;;26.90;14.80;;;;;;;;;;6356099;22;20410;-92
2021/03/04 09:52:45;;;;;;;18.67;14.47;;;;;;;;;;6357149;22;20419;-96
2021/03/04 09:55:12;;;;;;;21.53;15.87;;;;;;;;;;6356781;22;20724;-94
2021/03/04 09:57:40;;;;;;;20.60;15.50;;;;;;;;;;6357882;22;20415;-93
2021/03/04 10:00:17;;;;;;;19.80;14.83;;;;;;;;;;6357081;22;20485;-93
2021/03/04 10:02:45;;;;;;;21.30;14.33;;;;;;;;;;6355051;22;20410;-91
2021/03/04 10:05:13;;;;;;;21.30;14.30;;;;;;;;;;6355250;22;20402;-92
2021/03/04 10:07:39;;;;;;;24.30;16.20;;;;;;;;;;6351844;22;20459;-92
2021/03/04 10:10:11;;;;;;;22.07;15.40;;;;;;;;;;6348237;22;20737;-92
2021/03/04 10:12:45;;;;;;;20.10;14.93;;;;;;;;;;6346269;22;20411;-91
2021/03/04 10:15:22;;;;;;;20.00;14.23;;;;;;;;;;6347537;22;20403;-92
2021/03/04 10:17:48;;;;;;;18.53;13.53;;;;;;;;;;6348067;22;20924;-92
2021/03/04 10:20:15;;;;;;;21.23;15.00;;;;;;;;;;6349288;22;20602;-92
2021/03/04 10:22:41;;;;;;;17.90;13.93;;;;;;;;;;6343357;22;20422;-93
2021/03/04 10:25:07;;;;;;;15.33;13.50;;;;;;;;;;6348310;22;20408;-95
2021/03/04 10:27:33;;;;;;;19.43;13.47;;;;;;;;;;6348539;22;20443;-94
2021/03/04 10:29:59;;;;;;;15.90;13.13;;;;;;;;;;6350170;22;20404;-92
2021/03/04 10:32:26;;;;;;;16.53;12.80;;;;;;;;;;6346230;22;20414;-92
2021/03/04 10:34:52;;;;;;;15.60;12.97;;;;;;;;;;6346588;22;20476;-92
2021/03/04 10:37:18;;;;;;;16.50;12.53;;;;;;;;;;6345280;22;20411;-93
2021/03/04 10:39:44;;;;;;;15.93;12.70;;;;;;;;;;6347521;22;20411;-94
2021/03/04 10:42:10;;;;;;;18.70;11.87;;;;;;;;;;6346895;22;20411;-93
2021/03/04 10:44:38;;;;;;;16.93;11.13;;;;;;;;;;6348745;22;20403;-95
2021/03/04 10:47:04;;;;;;;16.00;10.60;;;;;;;;;;6348742;22;20458;-94
2021/03/04 10:49:31;;;;;;;16.03;11.43;;;;;;;;;;6349521;22;20458;-92
2021/03/04 10:51:57;;;;;;;11.17;9.90;;;;;;;;;;6349367;22;20420;-93
2021/03/04 10:54:23;;;;;;;9.83;8.87;;;;;;;;;;6347949;22;20400;-93
2021/03/04 10:56:49;;;;;;;12.27;9.80;;;;;;;;;;6349072;22;20410;-92
2021/03/04 10:59:15;;;;;;;11.83;9.63;;;;;;;;;;6346505;22;20427;-96
2021/03/04 11:01:41;;;;;;;13.33;9.63;;;;;;;;;;6348084;22;20408;-93
2021/03/04 11:04:07;;;;;;;10.20;7.93;;;;;;;;;;6348312;22;20400;-92
2021/03/04 11:06:34;;;;;;;11.37;9.17;;;;;;;;;;6350155;22;20491;-96
2021/03/04 11:09:00;;;;;;;11.07;9.00;;;;;;;;;;6345839;22;20414;-95
2021/03/04 11:11:27;;;;;;;10.30;9.20;;;;;;;;;;6348933;22;20411;-93
2021/03/04 11:13:52;;;;;;;10.57;9.27;;;;;;;;;;6349934;22;20440;-93
2021/03/04 11:16:30;;;;;;;9.90;8.90;;;;;;;;;;6350068;22;20419;-95
2021/03/04 11:18:56;;;;;;;9.40;8.50;;;;;;;;;;6348611;22;20416;-93
2021/03/04 11:21:22;;;;;;;10.80;9.13;;;;;;;;;;6352150;22;20479;-93
2021/03/04 11:23:49;;;;;;;10.20;9.10;;;;;;;;;;6333636;22;20469;-95
2021/03/04 11:26:15;;;;;;;10.43;8.47;;;;;;;;;;6286076;22;20444;-93
2021/03/04 11:28:41;;;;;;;9.50;8.43;;;;;;;;;;6285773;22;20412;-94
2021/03/04 11:31:07;;;;;;;9.93;8.00;;;;;;;;;;6286749;22;20411;-94
2021/03/04 11:33:33;;;;;;;9.70;8.47;;;;;;;;;;6285134;22;20409;-94
2021/03/04 11:35:59;;;;;;;9.60;8.47;;;;;;;;;;6285588;22;20759;-94
2021/03/04 11:38:25;;;;;;;9.73;8.73;;;;;;;;;;6286511;22;20443;-94
2021/03/04 11:40:52;;;;;;;9.30;7.80;;;;;;;;;;6285434;22;20423;-95
2021/03/04 11:43:18;;;;;;;9.57;7.60;;;;;;;;;;6286937;22;20415;-93
2021/03/04 11:45:44;;;;;;;8.97;7.40;;;;;;;;;;6290960;22;20401;-94
2021/03/04 11:48:11;;;;;;;10.70;7.20;;;;;;;;;;6285605;22;20401;-95
2021/03/04 11:50:37;;;;;;;7.50;6.80;;;;;;;;;;6284029;22;20432;-95
2021/03/04 11:53:03;;;;;;;10.33;6.77;;;;;;;;;;6286052;22;20413;-93
2021/03/04 11:55:30;;;;;;;9.10;7.87;;;;;;;;;;6288885;22;20481;-94
2021/03/04 11:57:56;;;;;;;7.67;6.97;;;;;;;;;;6284673;22;20420;-94
2021/03/04 12:00:23;;;;;;;8.53;7.10;;;;;;;;;;6284263;22;20400;-94
2021/03/04 12:02:49;;;;;;;7.47;6.50;;;;;;;;;;6286807;22;20417;-94
2021/03/04 12:05:15;;;;;;;8.20;7.33;;;;;;;;;;6281755;22;20411;-93
2021/03/04 12:07:42;;;;;;;11.67;9.10;;;;;;;;;;6287043;22;20471;-94
2021/03/04 12:10:09;;;;;;;8.97;7.63;;;;;;;;;;6288934;22;20401;-96
2021/03/04 12:12:35;;;;;;;17.57;7.30;;;;;;;;;;6287862;22;20459;-94
2021/03/04 12:15:03;;;;;;;9.20;8.00;;;;;;;;;;6287821;22;20413;-95
2021/03/04 12:17:29;;;;;;;10.00;7.80;;;;;;;;;;6285116;22;20427;-94
2021/03/04 12:19:55;;;;;;;8.40;7.37;;;;;;;;;;6286421;22;20418;-94
2021/03/04 12:22:21;;;;;;;9.20;6.70;;;;;;;;;;6287619;22;20408;-94
2021/03/04 12:24:47;;;;;;;6.47;5.97;;;;;;;;;;6286946;22;20443;-93
2021/03/04 12:27:13;;;;;;;8.80;6.77;;;;;;;;;;6284998;22;20453;-94
2021/03/04 12:29:39;;;;;;;10.20;6.73;;;;;;;;;;6286317;22;20421;-92
2021/03/04 12:32:07;;;;;;;7.90;6.30;;;;;;;;;;6287251;22;20420;-92
2021/03/04 12:34:33;;;;;;;7.87;6.80;;;;;;;;;;6291622;22;20413;-96
2021/03/04 12:36:59;;;;;;;8.43;6.57;;;;;;;;;;6288501;22;20409;-94
2021/03/04 12:39:27;;;;;;;7.40;6.53;;;;;;;;;;6290123;22;20479;-94
2021/03/04 12:41:54;;;;;;;9.03;7.50;;;;;;;;;;6285618;22;20420;-93
2021/03/04 12:44:20;;;;;;;7.47;6.60;;;;;;;;;;6289341;22;20417;-93
2021/03/04 12:46:46;;;;;;;7.60;6.90;;;;;;;;;;6290213;22;20450;-94
2021/03/04 12:49:15;;;;;;;8.00;7.20;;;;;;;;;;6292533;22;20417;-95
2021/03/04 12:51:43;;;;;;;8.60;7.13;;;;;;;;;;6292124;22;20488;-94
2021/03/04 12:54:10;;;;;;;7.00;6.27;;;;;;;;;;6290410;22;20412;-92
2021/03/04 12:56:36;;;;;;;7.13;6.43;;;;;;;;;;6291413;22;20413;-94
2021/03/04 12:59:04;;;;;;;8.70;6.37;;;;;;;;;;6287861;22;20468;-93
2021/03/04 13:01:30;;;;;;;10.30;6.67;;;;;;;;;;6288979;22;20473;-95
2021/03/04 13:03:56;;;;;;;11.90;6.30;;;;;;;;;;6286881;22;20420;-96
2021/03/04 13:06:23;;;;;;;8.03;6.47;;;;;;;;;;6289553;22;21026;-93
2021/03/04 13:08:49;;;;;;;7.50;6.40;;;;;;;;;;6293594;22;20421;-94
2021/03/04 13:11:15;;;;;;;7.80;5.90;;;;;;;;;;6291840;22;20421;-94
2021/03/04 13:13:44;;;;;;;8.40;6.13;;;;;;;;;;6289638;22;20451;-95
2021/03/04 13:16:12;;;;;;;6.90;6.30;;;;;;;;;;6265357;22;20437;-94
2021/03/04 13:18:38;;;;;;;6.90;6.20;;;;;;;;;;6289648;22;20419;-94
2021/03/04 13:21:05;;;;;;;7.83;6.17;;;;;;;;;;6292547;22;20416;-96
2021/03/04 13:23:34;;;;;;;6.67;5.83;;;;;;;;;;6292740;22;20406;-94
2021/03/04 13:26:00;;;;;;;6.97;5.70;;;;;;;;;;6293815;22;20420;-95
2021/03/04 13:28:32;;;;;;;7.50;6.80;;;;;;;;;;6261694;22;20419;-94
2021/03/04 13:31:06;;;;;;;8.80;5.83;;;;;;;;;;6293564;22;20408;-94
2021/03/04 13:33:38;;;;;;;8.17;7.40;;;;;;;;;;6290763;22;20434;-94
2021/03/04 13:36:10;;;;;;;10.80;6.50;;;;;;;;;;6293119;22;20408;-96
2021/03/04 13:38:55;;;;;;;6.63;5.93;;;;;;;;;;6264012;22;20416;-93
2021/03/04 13:41:25;;;;;;;7.70;6.47;;;;;;;;;;6295237;22;20397;-95
2021/03/04 13:43:55;;;;;;;7.77;6.40;;;;;;;;;;6291021;22;20448;-96
2021/03/04 13:46:21;;;;;;;8.60;6.43;;;;;;;;;;6288279;22;20501;-95
2021/03/04 13:48:49;;;;;;;7.90;7.10;;;;;;;;;;6291541;22;20461;-96
2021/03/04 13:51:15;;;;;;;7.60;6.17;;;;;;;;;;6293038;22;20411;-95
2021/03/04 13:53:42;;;;;;;10.70;6.83;;;;;;;;;;6292157;22;20487;-94
2021/03/04 13:56:16;;;;;;;7.63;6.90;;;;;;;;;;6290294;22;20409;-94
2021/03/04 13:58:42;;;;;;;7.30;6.57;;;;;;;;;;6293538;22;20408;-95
2021/03/04 14:01:11;;;;;;;9.20;6.90;;;;;;;;;;6293327;22;20470;-94
2021/03/04 14:03:37;;;;;;;7.07;6.37;;;;;;;;;;6290997;22;20406;-96
2021/03/04 14:06:07;;;;;;;7.63;6.83;;;;;;;;;;6291429;22;20415;-96
2021/03/04 14:08:33;;;;;;;7.57;6.73;;;;;;;;;;6288790;22;20412;-93
2021/03/04 14:11:00;;;;;;;6.83;6.13;;;;;;;;;;6262488;22;20436;-95
2021/03/04 14:13:26;;;;;;;10.00;7.40;;;;;;;;;;6288744;22;20512;-94
2021/03/04 14:15:54;;;;;;;6.90;6.20;;;;;;;;;;6289246;22;20415;-95
2021/03/04 14:18:21;;;;;;;8.60;7.10;;;;;;;;;;6281990;22;21056;-95
2021/03/04 14:20:47;;;;;;;6.77;6.13;;;;;;;;;;6284581;22;20895;-95
2021/03/04 14:23:15;;;;;;;7.73;6.57;;;;;;;;;;6290551;22;20475;-95
2021/03/04 14:25:41;;;;;;;7.90;6.30;;;;;;;;;;6288930;22;20398;-95
2021/03/04 14:28:08;;;;;;;7.63;6.83;;;;;;;;;;6288522;22;20455;-96
2021/03/04 14:30:34;;;;;;;8.70;7.17;;;;;;;;;;6290705;22;20419;-95
2021/03/04 14:33:00;;;;;;;8.67;6.37;;;;;;;;;;6288144;22;20901;-94
2021/03/04 14:35:26;;;;;;;9.90;7.20;;;;;;;;;;6288395;22;20562;-92
2021/03/04 14:37:52;;;;;;;8.47;7.40;;;;;;;;;;6285092;22;20424;-93
2021/03/04 14:40:20;;;;;;;7.30;6.60;;;;;;;;;;6288728;22;20434;-94
2021/03/04 14:42:46;;;;;;;6.97;6.30;;;;;;;;;;6288314;22;20409;-95
2021/03/04 14:45:14;;;;;;;10.20;7.10;;;;;;;;;;6288103;22;20405;-95
2021/03/04 14:47:42;;;;;;;14.43;6.90;;;;;;;;;;6280833;22;20795;-95
2021/03/04 14:50:09;;;;;;;7.43;6.73;;;;;;;;;;6288071;22;20529;-95
2021/03/04 14:52:35;;;;;;;10.97;6.70;;;;;;;;;;6286773;22;20416;-93
2021/03/04 14:55:01;;;;;;;8.07;6.80;;;;;;;;;;6288682;22;20416;-94
2021/03/04 14:57:27;;;;;;;8.93;6.93;;;;;;;;;;6286920;22;20420;-94
2021/03/04 14:59:53;;;;;;;9.00;7.23;;;;;;;;;;6288090;22;20414;-90
2021/03/04 15:02:20;;;;;;;8.70;6.40;;;;;;;;;;6285928;22;20420;-93
2021/03/04 15:04:46;;;;;;;8.13;6.97;;;;;;;;;;6288306;22;20435;-90
2021/03/04 15:07:12;;;;;;;8.97;7.50;;;;;;;;;;6285536;22;20449;-91
2021/03/04 15:09:39;;;;;;;8.83;6.20;;;;;;;;;;6286089;22;20412;-94
2021/03/04 15:12:06;;;;;;;7.63;6.53;;;;;;;;;;6287407;22;20446;-93
2021/03/04 15:14:33;;;;;;;7.57;6.20;;;;;;;;;;6282606;22;20418;-90
2021/03/04 15:16:59;;;;;;;8.10;6.50;;;;;;;;;;6280875;22;20446;-92
2021/03/04 15:19:26;;;;;;;10.60;7.40;;;;;;;;;;6282607;22;20407;-92
2021/03/04 15:21:52;;;;;;;9.13;7.10;;;;;;;;;;6282956;22;20409;-91
2021/03/04 15:24:18;;;;;;;6.73;6.13;;;;;;;;;;6282998;22;20417;-90
2021/03/04 15:26:44;;;;;;;10.23;6.97;;;;;;;;;;6287311;22;20450;-90
2021/03/04 15:29:10;;;;;;;7.37;6.67;;;;;;;;;;6285262;22;20450;-92
2021/03/04 15:31:36;;;;;;;7.93;6.50;;;;;;;;;;6285532;22;20829;-93
2021/03/04 15:34:02;;;;;;;7.83;6.73;;;;;;;;;;6286170;22;20408;-92
2021/03/04 15:36:29;;;;;;;9.83;7.00;;;;;;;;;;6280624;22;20426;-91
2021/03/04 15:38:55;;;;;;;14.00;7.00;;;;;;;;;;6282799;22;20418;-91
2021/03/04 15:41:21;;;;;;;7.40;6.60;;;;;;;;;;6288792;22;20401;-92
2021/03/04 15:43:47;;;;;;;8.03;6.30;;;;;;;;;;6284957;22;20428;-94
2021/03/04 15:46:14;;;;;;;8.33;7.13;;;;;;;;;;6280829;22;20409;-93
2021/03/04 15:48:40;;;;;;;6.50;5.90;;;;;;;;;;6278195;22;20463;-94
2021/03/04 15:51:06;;;;;;;7.23;6.53;;;;;;;;;;6289455;22;20409;-92
2021/03/04 15:53:33;;;;;;;6.70;6.00;;;;;;;;;;6282946;22;20890;-93
2021/03/04 15:55:59;;;;;;;7.50;6.57;;;;;;;;;;6284472;22;20406;-91
2021/03/04 15:58:25;;;;;;;7.67;6.57;;;;;;;;;;6287059;22;20410;-93
2021/03/04 16:00:52;;;;;;;8.27;6.33;;;;;;;;;;6286027;22;20420;-93
2021/03/04 16:03:18;;;;;;;8.47;5.90;;;;;;;;;;6288177;22;20417;-91
2021/03/04 16:05:45;;;;;;;6.53;5.83;;;;;;;;;;6284776;22;20401;-92
2021/03/04 16:08:11;;;;;;;7.23;6.00;;;;;;;;;;6286109;22;20448;-92
2021/03/04 16:10:38;;;;;;;5.90;5.30;;;;;;;;;;6286316;22;20413;-93
2021/03/04 16:13:08;;;;;;;6.20;5.43;;;;;;;;;;6291741;22;20409;-95
2021/03/04 16:15:34;;;;;;;7.30;5.70;;;;;;;;;;6295297;22;20411;-94
2021/03/04 16:18:00;;;;;;;6.80;6.10;;;;;;;;;;6289938;22;20436;-95
2021/03/04 16:20:29;;;;;;;6.90;5.97;;;;;;;;;;6286193;22;20401;-92
2021/03/04 16:22:55;;;;;;;7.27;5.90;;;;;;;;;;6288823;22;20412;-93
2021/03/04 16:25:24;;;;;;;8.60;5.60;;;;;;;;;;6285358;22;20417;-94
2021/03/04 16:30:27;;;;;;;9.30;7.23;;;;;;;;;;6261366;22;20460;-94
2021/03/04 16:32:54;;;;;;;16.03;7.57;;;;;;;;;;6291105;22;20434;-93
2021/03/04 16:35:21;;;;;;;11.90;7.40;;;;;;;;;;6286547;22;20412;-95
2021/03/04 16:37:47;;;;;;;11.80;8.27;;;;;;;;;;6281753;22;20396;-95
2021/03/04 16:40:13;;;;;;;10.23;7.70;;;;;;;;;;6289697;22;20416;-96
2021/03/04 16:42:40;;;;;;;11.13;6.67;;;;;;;;;;6291018;22;20412;-95
2021/03/04 16:45:07;;;;;;;9.17;7.30;;;;;;;;;;6289821;22;20417;-95
2021/03/04 16:47:34;;;;;;;7.97;6.40;;;;;;;;;;6283415;22;20447;-92
2021/03/04 16:50:00;;;;;;;14.13;7.40;;;;;;;;;;6286257;22;21032;-95
2021/03/04 16:52:26;;;;;;;11.93;7.90;;;;;;;;;;6286133;22;20405;-95
2021/03/04 16:54:52;;;;;;;11.77;8.00;;;;;;;;;;6285205;22;20419;-95
2021/03/04 16:57:18;;;;;;;16.90;8.97;;;;;;;;;;6286934;22;20397;-95
2021/03/04 16:59:44;;;;;;;17.47;8.67;;;;;;;;;;6287277;22;20417;-92
2021/03/04 17:02:10;;;;;;;12.23;8.20;;;;;;;;;;6285245;22;20409;-92
2021/03/04 17:04:37;;;;;;;9.50;8.17;;;;;;;;;;6286176;22;20436;-92
2021/03/04 17:07:03;;;;;;;10.27;8.43;;;;;;;;;;6285070;22;20448;-94
2021/03/04 17:09:30;;;;;;;9.13;7.87;;;;;;;;;;6288699;22;20401;-95
2021/03/04 17:11:56;;;;;;;9.80;6.83;;;;;;;;;;6285072;22;20408;-92
2021/03/04 17:14:22;;;;;;;9.80;7.70;;;;;;;;;;6287406;22;20424;-93
2021/03/04 17:16:48;;;;;;;12.17;9.13;;;;;;;;;;6288027;22;20420;-94
2021/03/04 17:19:14;;;;;;;14.23;11.10;;;;;;;;;;6283762;22;20416;-94
2021/03/04 17:21:42;;;;;;;19.20;10.30;;;;;;;;;;6282790;22;20416;-91
2021/03/04 17:24:08;;;;;;;19.80;11.70;;;;;;;;;;6282862;22;20551;-91
2021/03/04 17:26:34;;;;;;;16.13;11.07;;;;;;;;;;6284814;22;20458;-93
2021/03/04 17:29:00;;;;;;;12.40;9.20;;;;;;;;;;6284526;22;20428;-90
2021/03/04 17:31:26;;;;;;;11.07;9.60;;;;;;;;;;6286661;22;20440;-90
2021/03/04 17:33:52;;;;;;;12.60;9.50;;;;;;;;;;6283721;22;20416;-91
2021/03/04 17:36:18;;;;;;;16.00;10.37;;;;;;;;;;6284719;22;20425;-91
2021/03/04 17:38:46;;;;;;;16.07;10.50;;;;;;;;;;6283552;22;20407;-94
2021/03/04 17:41:12;;;;;;;25.60;17.83;;;;;;;;;;6284125;22;20412;-93
2021/03/04 17:43:38;;;;;;;24.17;18.63;;;;;;;;;;6282819;22;20458;-94